METAR Data
IDs: Format: Raw Decoded Include TAF

Data at: 0351 UTC 20 Oct 2018

PAVL 200253Z AUTO 36009KT 8SM OVC090 02/01 A2956 RMK AO2 SLP009 T00220006 58018 TSNO
PAVL 200153Z AUTO 35009KT 8SM OVC090 03/01 A2958 RMK AO2 SLP016 T00280011 TSNO
PAVL 200053Z AUTO 02009KT 8SM SCT095 03/02 A2959 RMK AO2 SLP022 T00280017 TSNO
PAVL 192353Z AUTO 04006KT 8SM OVC044 03/02 A2961 RMK AO2 SLP027 T00330022 10039 20011 58014 TSNO
PAVL 192253Z AUTO 02007KT 8SM SCT045 OVC090 03/02 A2963 RMK AO2 SLP033 T00330022 TSNO
PAVL 192153Z AUTO 02007KT 8SM SCT022 03/02 A2964 RMK AO2 SLP036 T00280022 TSNO
PAVL 192053Z AUTO 03007KT 8SM OVC020 02/02 A2965 RMK AO2 SLP041 T00220017 58014 TSNO
PAVL 191953Z AUTO 03008KT 8SM FEW014 BKN026 OVC045 02/02 A2967 RMK AO2 SLP048 T00170017 TSNO
PAVL 191913Z AUTO 02004KT 8SM OVC015 02/01 A2968 RMK AO2 T00170011 TSNO
PAVL 191853Z AUTO 01003KT 7SM OVC013 01/01 A2968 RMK AO2 SLP052 T00110011 TSNO
PAVL 191806Z AUTO 04004KT 9SM OVC011 02/01 A2969 RMK AO2 T00170011 TSNO
PAVL 191753Z AUTO 03005KT 6SM BR OVC009 02/01 A2969 RMK AO2 SLP055 I6001 T00170011 10017 20006 56011 TSNO
PAVL 191733Z AUTO 03006KT 3SM BR BKN008 OVC013 02/01 A2970 RMK AO2 T00170011 TSNO
PAVL 191720Z AUTO 04006KT 3SM BR SCT008 OVC015 02/01 A2970 RMK AO2 T00170011 TSNO
PAVL 191712Z AUTO 03006KT 3SM BR SCT008 OVC013 02/01 A2970 RMK AO2 T00170011 TSNO
PAVL 191658Z AUTO 03006KT 3SM BR FEW008 OVC015 02/01 A2971 RMK AO2 T00170011 TSNO
PAVL 191653Z AUTO 04007KT 2 1/2SM BR OVC015 02/01 A2971 RMK AO2 SLP060 T00170011 TSNO
PAVL 191651Z AUTO 04006KT 2 1/2SM BR OVC015 02/01 A2971 RMK AO2 TSNO
PAVL 191604Z AUTO 03006KT 4SM BR FEW008 OVC020 01/01 A2972 RMK AO2 T00110006 TSNO
PAVL 191553Z AUTO 03007KT 2 1/2SM BR OVC016 01/01 A2973 RMK AO2 SLP066 T00110006 TSNO
PAVL 191529Z AUTO 04006KT 3SM BR OVC021 01/01 A2973 RMK AO2 T00110006 TSNO
PAVL 191514Z AUTO 04007KT 2 1/2SM BR OVC023 01/01 A2973 RMK AO2 T00110006 TSNO
PAVL 191453Z AUTO 04007KT 3SM BR OVC019 01/01 A2974 RMK AO2 SLP072 I3001 T00110006 58018 TSNO
PAVL 191424Z AUTO 02006KT 3SM BR SCT008 OVC021 01/01 A2975 RMK AO2 T00060006 TSNO
PAVL 191402Z AUTO 02006KT 5SM BR OVC009 01/01 A2976 RMK AO2 T00060006 TSNO
PAVL 191353Z AUTO 02006KT 4SM BR OVC010 01/01 A2976 RMK AO2 SLP079 I1001 T00060006 TSNO
PAVL 191314Z AUTO 02005KT 3SM BR OVC011 01/00 A2977 RMK AO2 I1001 T00060000 TSNO
PAVL 191253Z AUTO 01005KT 2 1/2SM BR OVC011 01/00 A2978 RMK AO2 SLP084 I1000 T00060000 TSNO
PAVL 191238Z AUTO 03005KT 2 1/2SM BR OVC011 01/00 A2979 RMK AO2 T00060000 TSNO
PAVL 191219Z AUTO 01005KT 7SM FEW009 OVC013 01/00 A2979 RMK AO2 T00060000 TSNO
PAVL 191208Z AUTO 02004KT 9SM OVC014 01/00 A2979 RMK AO2 T00060000 TSNO
PAVL 191200Z AUTO 02004KT 7SM OVC016 01/00 A2979 RMK AO2 T00060000 TSNO
PAVL 191153Z AUTO 02004KT 6SM BR FEW010 OVC014 01/00 A2980 RMK AO2 SNB1058E10 SLP090 P0000 60000 I1000 I6000 T00060000 10006 21006 56007 TSNO
PAVL 191118Z AUTO 04005KT 5SM BR FEW010 OVC022 01/M01 A2980 RMK AO2 SNB1058E10 P0000 T00061006 TSNO
PAVL 191053Z AUTO 02005KT 7SM OVC010 01/M01 A2981 RMK AO2 SNB04E32 SLP093 P0000 T00061006 TSNO
PAVL 191040Z AUTO 03005KT 4SM BR BKN011 BKN017 OVC021 01/M01 A2981 RMK AO2 SNB04E32 P0000 T00061006 TSNO
PAVL 190953Z AUTO 02004KT 9SM OVC019 00/M01 A2982 RMK AO2 SLP097 T00001011 TSNO
PAVL 190903Z AUTO 02006KT 9SM OVC026 00/M01 A2983 RMK AO2 T00001011 TSNO
PAVL 190853Z AUTO 03006KT 9SM OVC030 00/M01 A2983 RMK AO2 SLP100 T00001011 400111033 58003 TSNO
PAVL 190823Z AUTO 03005KT 9SM OVC030 00/M01 A2983 RMK AO2 T00001011 TSNO
PAVL 190753Z AUTO 02005KT 9SM BKN025 BKN032 OVC055 00/M01 A2983 RMK AO2 SLP101 T00001011 TSNO
PAVL 190653Z AUTO 04005KT 9SM OVC029 00/M01 A2984 RMK AO2 SLP104 T00001011 TSNO
PAVL 190553Z AUTO 03006KT 10SM OVC055 M01/M02 A2984 RMK AO2 SLP103 T10061022 10011 21006 50001 TSNO
PAVL 190453Z AUTO 04004KT 10SM OVC050 M01/M03 A2984 RMK AO2 SLP104 T10061028 TSNO
PAVL 190413Z AUTO 03006KT 9SM SCT025 OVC050 01/M03 A2983 RMK AO2 T00061028 TSNO
PAVL 190353Z AUTO 05003KT 10SM OVC025 01/M03 A2984 RMK AO2 SLP104 T00061028 TSNO
PAVL 190253Z AUTO 01007KT 8SM OVC023 01/M03 A2983 RMK AO2 SLP103 T00111028 52000 TSNO
PAVL 190153Z AUTO 35005KT 8SM OVC024 01/M02 A2983 RMK AO2 SLP102 T00111022 TSNO
PAVL 190053Z AUTO 02007KT 8SM OVC027 01/M03 A2983 RMK AO2 SLP102 T00111033 TSNO
PAVL 182353Z AUTO 05007KT 8SM OVC028 01/M03 A2983 RMK AO2 SLP102 T00111033 10011 21011 50002 TSNO
PAVL 182317Z AUTO 04006KT 8SM OVC029 01/M04 A2984 RMK AO2 T00111039 TSNO
PAVL 182253Z AUTO 04004KT 8SM OVC030 01/M04 A2984 RMK AO2 SLP103 T00061039 TSNO
PAVL 182153Z AUTO 05006KT 8SM OVC033 01/M04 A2983 RMK AO2 SLP101 T00061039 TSNO
PAVL 181953Z AUTO 03010KT 8SM OVC039 M01/M05 A2981 RMK AO2 SLP096 T10061050 TSNO
PAVL 181853Z AUTO 03011KT 8SM FEW027 OVC035 M01/M06 A2980 RMK AO2 SLP092 T10111056 TSNO
PAVL 181813Z AUTO 03012KT 9SM OVC031 M01/M06 A2979 RMK AO2 T10111056 TSNO
PAVL 181753Z AUTO 03010KT 9SM OVC029 M01/M06 A2978 RMK AO2 SLP085 T10111056 11011 21028 51012 TSNO
PAVL 181714Z AUTO 02011KT 9SM OVC029 M02/M06 A2978 RMK AO2 T10171056 TSNO
PAVL 181653Z AUTO 03013KT 9SM OVC030 M02/M06 A2978 RMK AO2 SLP083 T10171056 TSNO
PAVL 181553Z AUTO 01012KT 9SM BKN033 OVC050 M02/M06 A2976 RMK AO2 SLP078 T10171061 TSNO